Hub


Voltar

 INFORMAÇÕES METEOROLÓGICAS

METAR FOR SBFN


ADDS - METARS form results

(2320 UTC 17 February 2019)
Data provider http://aviationweather.gov/metar/data/
 
Forecast for: SBFN (FERNANDO DE NORO, BR)
Text: TAF SBFN 172200Z 1800/1812 08007KT 9000 SCT015 TN24/1808Z TX29/1811Z RMK PEA
Forecast period: 0000 to 1200 UTC 18 February 2019
Forecast type: FROM: standard forecast or significant change
Winds: from the E (80 degrees) at 8 MPH (7 knots; 3.6 m/s)
Visibility: 6 miles (9 km)
Ceiling: at least 12,000 feet AGL
Clouds: scattered clouds at 1500 feet AGL
Weather: PE  (moderate ice pellets)


 MAPA DO AEROPORTO


 INFORMAÇÕES DA PISTA

Pista 12 Tamanho da pista 6053 ft Largura da pista 148 ft
Elevação da pista 0 ft Ranhura da pista 0 ft Proa da pista 0
Pista 30 Tamanho da pista 6053 ft Largura da pista 148 ft
Elevação da pista 0 ft Ranhura da pista 0 ft Proa da pista 0

 FREQUÊNCIAS DO AEROPORTO

Tipo AFIS Nome NORONHA RD Frequência 125.9 MHZ

 AUXÍLIOS DE NAVEGAÇÃO PRÓXIMOS AO AEROPORTO

Tipo VOR-DME Nome Fernando Frequência 113700 KHZ
Tipo NDB Nome Noronha Frequência 300 KHZ